createdAt,value
2022-09-21T07:42:09.386Z,8.72
2022-09-21T07:43:08.922Z,8.73
2022-09-21T07:44:09.063Z,8.845
2022-09-21T07:45:09.001Z,8.96
2022-09-21T07:46:09.255Z,9.08
2022-09-21T07:47:09.225Z,9.213
2022-09-21T07:48:09.090Z,9.339
2022-09-21T07:49:09.237Z,9.48
2022-09-21T07:50:09.123Z,9.617
2022-09-21T07:51:08.917Z,9.77
2022-09-21T07:52:11.033Z,9.93
2022-09-21T07:53:09.368Z,10.025
2022-09-21T07:54:11.233Z,10.177
2022-09-21T07:55:09.136Z,10.296
2022-09-21T07:56:08.570Z,10.419
2022-09-21T07:57:09.326Z,10.54
2022-09-21T07:58:09.276Z,10.633
2022-09-21T07:59:11.377Z,10.745
2022-09-21T08:00:08.877Z,10.845
2022-09-21T08:01:09.789Z,10.93
2022-09-21T08:02:09.423Z,11.04
2022-09-21T08:03:08.601Z,11.16
2022-09-21T08:04:12.066Z,11.27
2022-09-21T08:05:09.064Z,11.366
2022-09-21T08:06:11.255Z,11.48
2022-09-21T08:07:11.911Z,11.57
2022-09-21T08:08:08.716Z,11.655
2022-09-21T08:09:09.034Z,11.785
2022-09-21T08:10:09.543Z,11.878
2022-09-21T08:11:09.312Z,11.965
2022-09-21T08:12:08.900Z,12.06
2022-09-21T08:13:11.565Z,12.16
2022-09-21T08:14:09.364Z,12.24
2022-09-21T08:15:16.603Z,12.328
2022-09-21T08:16:08.844Z,12.395
2022-09-21T08:17:09.535Z,12.445
2022-09-21T08:18:09.252Z,12.485
2022-09-21T08:19:09.182Z,12.515
2022-09-21T08:20:09.369Z,12.555
2022-09-21T08:21:11.872Z,12.6208
2022-09-21T08:22:08.806Z,12.649
2022-09-21T08:23:09.952Z,12.66
2022-09-21T08:24:09.367Z,12.709
2022-09-21T08:25:08.800Z,12.79
2022-09-21T08:26:08.947Z,12.827
2022-09-21T08:27:08.867Z,12.899
2022-09-21T08:28:09.997Z,12.99
2022-09-21T08:29:09.348Z,13.045
2022-09-21T08:30:11.793Z,13.085
2022-09-21T08:31:09.696Z,13.132
2022-09-21T08:32:08.983Z,13.21
2022-09-21T08:33:09.161Z,13.26
2022-09-21T08:34:09.570Z,13.339
2022-09-21T08:35:09.178Z,0
2022-09-21T08:36:08.780Z,13.465
2022-09-21T08:37:09.718Z,13.51
2022-09-21T08:38:09.052Z,13.575
2022-09-21T08:39:09.043Z,13.59
2022-09-21T08:40:09.303Z,13.65
2022-09-21T08:41:08.969Z,13.725
2022-09-21T08:42:09.740Z,13.72
2022-09-21T08:43:09.376Z,13.75
2022-09-21T08:44:09.013Z,13.76
2022-09-21T08:45:09.744Z,13.805
2022-09-21T08:46:09.219Z,13.827
2022-09-21T08:47:08.641Z,13.854
2022-09-21T08:48:09.220Z,13.847
2022-09-21T08:49:09.256Z,13.85
2022-09-21T08:50:09.078Z,13.8963
2022-09-21T08:51:09.201Z,13.967
2022-09-21T08:52:08.736Z,14.0381
2022-09-21T08:53:09.652Z,14.036
2022-09-21T08:54:08.864Z,14.05
2022-09-21T08:55:09.029Z,14.0654
2022-09-21T08:56:09.420Z,14.087
2022-09-21T08:57:09.064Z,14.145
2022-09-21T08:58:09.126Z,14.22
2022-09-21T08:59:09.994Z,14.2684
2022-09-21T09:00:09.331Z,14.3227
2022-09-21T09:01:09.075Z,14.395
2022-09-21T09:02:09.302Z,14.48
2022-09-21T09:03:09.245Z,14.555
2022-09-21T09:04:09.671Z,14.56
2022-09-21T09:05:09.517Z,14.59
2022-09-21T09:06:08.984Z,14.53
2022-09-21T09:07:09.328Z,14.47
2022-09-21T09:08:08.698Z,14.435
2022-09-21T09:09:10.067Z,14.435
2022-09-21T09:10:08.626Z,14.445
2022-09-21T09:11:08.430Z,14.47
2022-09-21T09:12:11.208Z,14.515
2022-09-21T09:13:09.126Z,14.54
2022-09-21T09:14:08.867Z,14.58
2022-09-21T09:15:09.721Z,14.691
2022-09-21T09:16:08.824Z,14.76
2022-09-21T09:17:08.640Z,14.8
2022-09-21T09:18:09.453Z,14.77
2022-09-21T09:19:09.399Z,14.76
2022-09-21T09:20:08.391Z,14.78
2022-09-21T09:21:09.764Z,14.833
2022-09-21T09:22:08.878Z,14.97
2022-09-21T09:23:10.938Z,14.995
2022-09-21T09:24:11.257Z,14.975
2022-09-21T09:25:12.016Z,14.995
2022-09-21T09:26:08.585Z,15.04
2022-09-21T09:27:09.303Z,15.14
2022-09-21T09:28:09.290Z,15.21
2022-09-21T09:29:08.574Z,15.235
2022-09-21T09:30:09.092Z,15.225
2022-09-21T09:31:09.430Z,15.235
2022-09-21T09:32:11.895Z,15.3683
2022-09-21T09:33:12.365Z,15.333
2022-09-21T09:34:07.805Z,15.316
2022-09-21T09:35:08.876Z,15.3
2022-09-21T09:36:09.240Z,15.3216
2022-09-21T09:37:09.048Z,15.445
2022-09-21T09:38:12.754Z,15.465
2022-09-21T09:39:10.313Z,15.515
2022-09-21T09:40:09.371Z,15.515
2022-09-21T09:41:09.853Z,15.46
2022-09-21T09:42:09.116Z,15.46
2022-09-21T09:43:09.129Z,15.505
2022-09-21T09:44:09.237Z,15.515
2022-09-21T09:45:12.372Z,15.535
2022-09-21T09:46:12.095Z,15.628
2022-09-21T09:47:08.834Z,15.672
2022-09-21T09:48:08.775Z,15.73
2022-09-21T09:49:09.763Z,15.866
2022-09-21T09:50:08.697Z,15.91
2022-09-21T09:51:09.049Z,15.94
2022-09-21T09:52:09.347Z,15.915
2022-09-21T09:53:08.893Z,15.89
2022-09-21T09:54:10.393Z,15.833
2022-09-21T09:55:09.447Z,15.85
2022-09-21T09:56:11.451Z,15.85
2022-09-21T09:57:09.137Z,15.845
2022-09-21T09:58:08.483Z,15.862
2022-09-21T09:59:08.402Z,15.833
2022-09-21T10:00:08.521Z,15.816
2022-09-21T10:01:11.809Z,15.765
2022-09-21T10:02:12.094Z,15.75
2022-09-21T10:03:12.220Z,15.834
2022-09-21T10:04:08.809Z,16
2022-09-21T10:05:09.088Z,16.035
2022-09-21T10:06:08.257Z,16.025
2022-09-21T10:07:09.562Z,16.111
2022-09-21T10:08:08.404Z,16.06
2022-09-21T10:09:09.007Z,16.04
2022-09-21T10:10:08.954Z,15.97
2022-09-21T10:11:09.233Z,15.975
2022-09-21T10:12:10.465Z,16.02
2022-09-21T10:13:09.564Z,16.065
2022-09-21T10:14:11.979Z,16.138
2022-09-21T10:15:09.296Z,16.199
2022-09-21T10:16:08.491Z,16.28
2022-09-21T10:17:12.329Z,16.339
2022-09-21T10:18:08.523Z,16.373
2022-09-21T10:19:09.633Z,16.425
2022-09-21T10:20:08.842Z,16.44
2022-09-21T10:21:12.267Z,16.465
2022-09-21T10:22:09.007Z,16.51
2022-09-21T10:23:09.350Z,16.597
2022-09-21T10:24:08.526Z,16.664
2022-09-21T10:25:09.291Z,16.827
2022-09-21T10:26:08.890Z,16.912
2022-09-21T10:27:08.865Z,16.92
2022-09-21T10:28:09.291Z,16.926
2022-09-21T10:29:08.452Z,16.9181
2022-09-21T10:30:08.621Z,16.94
2022-09-21T10:31:09.431Z,16.955
2022-09-21T10:32:12.328Z,16.955
2022-09-21T10:33:09.143Z,17.025
2022-09-21T10:34:08.723Z,17.08
2022-09-21T10:35:08.485Z,17.249
2022-09-21T10:36:08.949Z,17.373
2022-09-21T10:37:08.814Z,17.328
2022-09-21T10:38:08.549Z,17.27
2022-09-21T10:39:09.241Z,17.275
2022-09-21T10:40:08.865Z,17.322
2022-09-21T10:41:10.103Z,17.356
2022-09-21T10:42:08.975Z,17.367
2022-09-21T10:43:08.768Z,17.4
2022-09-21T10:44:12.372Z,17.475
2022-09-21T10:45:12.854Z,17.676
2022-09-21T10:46:10.332Z,17.689
2022-09-21T10:47:12.217Z,17.631
2022-09-21T10:48:08.872Z,17.6209
2022-09-21T10:49:08.937Z,17.655
2022-09-21T10:50:09.408Z,17.781
2022-09-21T10:51:08.971Z,17.79
2022-09-21T10:52:09.282Z,17.805
2022-09-21T10:53:09.779Z,17.8216
2022-09-21T10:54:10.076Z,17.816
2022-09-21T10:55:12.364Z,17.878
2022-09-21T10:56:16.030Z,17.8683
2022-09-21T10:57:10.059Z,17.85
2022-09-21T10:58:09.576Z,17.96
2022-09-21T10:59:08.049Z,17.945
2022-09-21T11:00:09.394Z,17.995
2022-09-21T11:01:09.278Z,18.02
2022-09-21T11:02:08.736Z,17.995
2022-09-21T11:03:09.189Z,18.03
2022-09-21T11:04:08.908Z,18.02
2022-09-21T11:05:08.566Z,18
2022-09-21T11:06:09.137Z,18
2022-09-21T11:07:08.809Z,18.025
2022-09-21T11:08:08.162Z,18.065
2022-09-21T11:09:09.514Z,18.143
2022-09-21T11:10:08.595Z,18.195
2022-09-21T11:11:08.899Z,18.235
2022-09-21T11:12:08.893Z,18.37
2022-09-21T11:13:09.020Z,18.56
2022-09-21T11:14:08.895Z,18.57
2022-09-21T11:15:09.180Z,18.54
2022-09-21T11:16:08.850Z,18.51
2022-09-21T11:17:12.473Z,18.505
2022-09-21T11:18:09.094Z,18.545
2022-09-21T11:19:10.067Z,18.61
2022-09-21T11:20:12.209Z,18.712
2022-09-21T11:21:12.474Z,18.785
2022-09-21T11:22:08.362Z,18.75
2022-09-21T11:23:09.316Z,18.725
2022-09-21T11:24:08.403Z,18.77
2022-09-21T11:25:12.582Z,18.78
2022-09-21T11:26:08.965Z,18.8108
2022-09-21T11:27:09.527Z,18.892
2022-09-21T11:28:09.443Z,18.975
2022-09-21T11:29:08.014Z,18.913
2022-09-21T11:30:08.097Z,18.781
2022-09-21T11:31:09.287Z,18.688
2022-09-21T11:32:08.928Z,18.637
2022-09-21T11:33:09.238Z,18.632
2022-09-21T11:34:07.495Z,18.62
2022-09-21T11:35:09.349Z,18.595
2022-09-21T11:36:09.072Z,18.605
2022-09-21T11:37:08.822Z,18.649
2022-09-21T11:38:09.247Z,18.691
2022-09-21T11:39:09.207Z,18.839
2022-09-21T11:40:09.165Z,18.78
2022-09-21T11:41:09.274Z,18.72
2022-09-21T11:42:08.639Z,18.69
2022-09-21T11:43:08.274Z,18.77
2022-09-21T11:44:10.846Z,18.862
2022-09-21T11:45:08.984Z,18.8
2022-09-21T11:46:09.749Z,18.822
2022-09-21T11:47:12.170Z,18.865
2022-09-21T11:48:09.799Z,18.889
2022-09-21T11:49:09.903Z,18.92
2022-09-21T11:50:29.430Z,18.8741
2022-09-21T11:51:09.007Z,18.8741
2022-09-21T11:52:09.109Z,18.862
2022-09-21T11:53:09.453Z,18.89
2022-09-21T11:54:11.735Z,18.93
2022-09-21T11:55:09.342Z,19.025
2022-09-21T11:56:08.331Z,19.0163
2022-09-21T11:57:09.743Z,19.06
2022-09-21T11:58:09.326Z,19.126
2022-09-21T11:59:08.077Z,19.216
2022-09-21T12:00:12.195Z,19.296
2022-09-21T12:01:12.069Z,19.341
2022-09-21T12:02:08.838Z,19.445
2022-09-21T12:03:09.741Z,19.509
2022-09-21T12:04:07.921Z,19.549
2022-09-21T12:05:12.004Z,19.61
2022-09-21T12:06:11.252Z,19.649
2022-09-21T12:07:09.615Z,19.715
2022-09-21T12:08:08.443Z,19.817
2022-09-21T12:09:08.790Z,19.8791
2022-09-21T12:10:11.001Z,19.95
2022-09-21T12:11:08.848Z,20.04
2022-09-21T12:12:09.496Z,20.1208
2022-09-21T12:13:09.205Z,20.171
2022-09-21T12:14:07.858Z,20.277
2022-09-21T12:15:09.262Z,20.384
2022-09-21T12:16:08.626Z,20.327
2022-09-21T12:17:08.606Z,20.333
2022-09-21T12:18:08.783Z,20.35
2022-09-21T12:19:07.666Z,20.46
2022-09-21T12:20:08.365Z,20.48
2022-09-21T12:21:09.156Z,20.48
2022-09-21T12:22:08.640Z,20.399
2022-09-21T12:23:08.464Z,20.43
2022-09-21T12:24:08.065Z,20.362
2022-09-21T12:25:09.007Z,20.555
2022-09-21T12:26:09.348Z,20.585
2022-09-21T12:27:09.045Z,20.439
2022-09-21T12:28:10.620Z,20.195
2022-09-21T12:29:07.599Z,20.065
2022-09-21T12:30:08.469Z,20.045
2022-09-21T12:31:11.780Z,20.09
2022-09-21T12:32:11.715Z,20.126
2022-09-21T12:33:09.410Z,20.07
2022-09-21T12:34:07.881Z,19.871
2022-09-21T12:35:09.393Z,19.729
2022-09-21T12:36:08.740Z,19.595
2022-09-21T12:37:08.258Z,19.45
2022-09-21T12:38:09.067Z,19.373
2022-09-21T12:39:07.940Z,19.26
2022-09-21T12:40:08.577Z,19.16
2022-09-21T12:41:09.529Z,19.195
2022-09-21T12:42:08.786Z,19.275
2022-09-21T12:43:10.144Z,19.23
2022-09-21T12:44:08.063Z,19.132
2022-09-21T12:45:09.048Z,19.166
2022-09-21T12:46:09.335Z,19.11
2022-09-21T12:47:13.082Z,19.137
2022-09-21T12:48:09.640Z,19.197
2022-09-21T12:49:08.244Z,19.414
2022-09-21T12:50:08.790Z,19.46
2022-09-21T12:51:09.550Z,19.48
2022-09-21T12:52:08.445Z,19.435
2022-09-21T12:53:09.607Z,19.345
2022-09-21T12:54:10.291Z,19.29
2022-09-21T12:55:09.360Z,19.23
2022-09-21T12:56:09.923Z,19.065
2022-09-21T12:57:58.525Z,18.99
2022-09-21T12:58:15.910Z,19.015
2022-09-21T12:59:10.770Z,19.045
2022-09-21T13:00:11.991Z,19.025
2022-09-21T13:01:09.254Z,18.965
2022-09-21T13:02:08.775Z,18.9
2022-09-21T13:03:10.588Z,18.899
2022-09-21T13:04:07.905Z,18.905
2022-09-21T13:05:09.109Z,18.93
2022-09-21T13:06:09.583Z,19.01
2022-09-21T13:07:09.272Z,19.005
2022-09-21T13:08:08.936Z,19.04
2022-09-21T13:09:15.543Z,19.202
2022-09-21T13:10:09.545Z,19.265
2022-09-21T13:11:09.143Z,19.23
2022-09-21T13:12:08.880Z,19.21
2022-09-21T13:13:08.647Z,19.215
2022-09-21T13:14:08.735Z,19.235
2022-09-21T13:15:09.282Z,19.323
2022-09-21T13:16:10.384Z,19.43
2022-09-21T13:17:08.289Z,19.41
2022-09-21T13:18:09.882Z,19.5
2022-09-21T13:19:09.190Z,19.44
2022-09-21T13:20:09.236Z,19.409
2022-09-21T13:21:09.882Z,19.465
2022-09-21T13:22:11.674Z,19.51
2022-09-21T13:23:09.066Z,19.48
2022-09-21T13:24:07.675Z,19.489
2022-09-21T13:25:10.043Z,19.58
2022-09-21T13:26:08.441Z,19.682
2022-09-21T13:27:11.911Z,19.7663
2022-09-21T13:28:08.611Z,19.763
2022-09-21T13:29:07.938Z,19.7663
2022-09-21T13:30:09.524Z,19.847
2022-09-21T13:31:18.483Z,19.823
2022-09-21T13:32:12.133Z,19.76
2022-09-21T13:33:08.926Z,19.729
2022-09-21T13:34:08.488Z,19.55
2022-09-21T13:35:08.962Z,19.4563
2022-09-21T13:36:08.121Z,19.42
2022-09-21T13:37:09.132Z,19.356
2022-09-21T13:38:09.313Z,19.42
2022-09-21T13:39:09.348Z,19.42
2022-09-21T13:40:10.356Z,19.366
2022-09-21T13:41:13.028Z,19.306
2022-09-21T13:42:08.252Z,19.295
2022-09-21T13:43:08.763Z,19.25
2022-09-21T13:44:08.277Z,19.21
2022-09-21T13:45:08.643Z,19.235
2022-09-21T13:46:10.193Z,19.323
2022-09-21T13:47:09.079Z,19.306
2022-09-21T13:48:08.944Z,19.25
2022-09-21T13:49:07.687Z,19.245
2022-09-21T13:50:08.388Z,19.235
2022-09-21T13:51:09.576Z,19.255
2022-09-21T13:52:08.470Z,19.28
2022-09-21T13:53:08.525Z,19.361
2022-09-21T13:54:08.066Z,19.42
2022-09-21T13:55:08.623Z,19.495
2022-09-21T13:56:07.982Z,19.49
2022-09-21T13:57:09.361Z,19.515
2022-09-21T13:58:08.403Z,19.535
2022-09-21T13:59:08.677Z,19.55
2022-09-21T14:00:09.125Z,19.56
2022-09-21T14:01:29.241Z,19.565
2022-09-21T14:02:08.854Z,19.57
2022-09-21T14:03:12.312Z,19.555
2022-09-21T14:04:08.307Z,19.585
2022-09-21T14:05:09.071Z,19.6316
2022-09-21T14:06:11.164Z,19.677
2022-09-21T14:07:08.850Z,19.735
2022-09-21T14:08:09.016Z,19.72
2022-09-21T14:09:08.319Z,19.76
2022-09-21T14:10:11.611Z,19.8216
2022-09-21T14:11:11.149Z,19.79
2022-09-21T14:12:09.186Z,19.806
2022-09-21T14:13:09.666Z,19.755
2022-09-21T14:14:10.900Z,19.745
2022-09-21T14:15:08.998Z,19.725
2022-09-21T14:16:12.040Z,19.715
2022-09-21T14:17:12.120Z,19.699
2022-09-21T14:18:08.973Z,19.61
2022-09-21T14:19:12.039Z,19.59
2022-09-21T14:20:08.426Z,19.605
2022-09-21T14:21:08.849Z,19.585
2022-09-21T14:22:09.501Z,19.7
2022-09-21T14:23:10.453Z,19.6783
2022-09-21T14:24:10.957Z,19.719
2022-09-21T14:25:08.633Z,19.715
2022-09-21T14:26:09.387Z,19.735
2022-09-21T14:27:09.111Z,19.605
2022-09-21T14:28:09.405Z,19.525
2022-09-21T14:29:09.440Z,19.49
2022-09-21T14:30:09.045Z,19.5
2022-09-21T14:31:08.754Z,19.52
2022-09-21T14:32:09.578Z,19.525
2022-09-21T14:33:11.602Z,19.52
2022-09-21T14:34:11.069Z,19.51
2022-09-21T14:35:08.786Z,19.53
2022-09-21T14:36:09.296Z,19.555
2022-09-21T14:37:09.369Z,19.605
2022-09-21T14:38:09.008Z,19.73
2022-09-21T14:39:08.690Z,19.95
2022-09-21T14:40:09.329Z,19.935
2022-09-21T14:41:10.369Z,19.856
2022-09-21T14:42:09.460Z,19.79
2022-09-21T14:43:09.135Z,19.795
2022-09-21T14:44:09.509Z,19.85
2022-09-21T14:45:09.083Z,19.876
2022-09-21T14:46:09.186Z,19.811
2022-09-21T14:47:09.395Z,19.8
2022-09-21T14:48:09.006Z,19.681
2022-09-21T14:49:09.680Z,19.58
2022-09-21T14:50:14.342Z,19.545
2022-09-21T14:51:08.714Z,19.615
2022-09-21T14:52:15.260Z,19.627
2022-09-21T14:53:08.936Z,19.851
2022-09-21T14:54:07.973Z,19.929
2022-09-21T14:55:09.045Z,19.755
2022-09-21T14:56:08.778Z,19.65
2022-09-21T14:57:08.929Z,19.543
2022-09-21T14:58:09.396Z,19.513
2022-09-21T14:59:08.678Z,19.5
2022-09-21T15:00:08.658Z,19.4815
2022-09-21T15:01:08.790Z,19.5709
2022-09-21T15:02:09.616Z,19.6015
2022-09-21T15:03:08.871Z,19.6209
2022-09-21T15:04:08.767Z,19.615
2022-09-21T15:05:09.343Z,19.575
2022-09-21T15:06:12.289Z,19.51
2022-09-21T15:07:08.610Z,19.52
2022-09-21T15:08:08.208Z,19.654
2022-09-21T15:09:09.391Z,19.616
2022-09-21T15:10:09.063Z,19.575
2022-09-21T15:11:09.079Z,19.51
2022-09-21T15:12:08.855Z,19.47
2022-09-21T15:13:09.290Z,19.47
2022-09-21T15:14:08.325Z,19.46
2022-09-21T15:15:09.609Z,19.455
2022-09-21T15:16:08.220Z,19.515
2022-09-21T15:17:09.500Z,19.555
2022-09-21T15:18:11.986Z,19.57
2022-09-21T15:19:08.731Z,19.605
2022-09-21T15:20:08.090Z,19.692
2022-09-21T15:21:08.629Z,19.77
2022-09-21T15:22:09.326Z,19.71
2022-09-21T15:23:08.766Z,19.6891
2022-09-21T15:24:08.236Z,19.683
2022-09-21T15:25:08.998Z,19.705
2022-09-21T15:26:09.113Z,19.73
2022-09-21T15:27:11.958Z,19.775
2022-09-21T15:28:11.630Z,19.8
2022-09-21T15:29:10.489Z,19.856
2022-09-21T15:30:08.865Z,19.884
2022-09-21T15:31:12.101Z,19.92
2022-09-21T15:32:08.919Z,19.945
2022-09-21T15:33:12.209Z,19.985
2022-09-21T15:34:07.735Z,20.025
2022-09-21T15:35:09.256Z,20.045
2022-09-21T15:36:08.897Z,20.095
2022-09-21T15:37:10.914Z,20.143
2022-09-21T15:38:09.218Z,20.166
2022-09-21T15:39:11.203Z,20.172
2022-09-21T15:40:08.406Z,20.195
2022-09-21T15:41:11.769Z,20.2
2022-09-21T15:42:11.399Z,20.205
2022-09-21T15:43:08.517Z,20.255
2022-09-21T15:44:08.526Z,20.24
2022-09-21T15:45:12.068Z,20.22
2022-09-21T15:46:09.188Z,20.166
2022-09-21T15:47:08.895Z,20.143
2022-09-21T15:48:09.153Z,20.143
2022-09-21T15:49:09.294Z,20.155
2022-09-21T15:50:12.301Z,20.143
2022-09-21T15:51:12.513Z,20.166
2022-09-21T15:52:09.671Z,20.166
2022-09-21T15:53:09.612Z,20.2
2022-09-21T15:54:09.115Z,20.215
2022-09-21T15:55:09.610Z,20.22
2022-09-21T15:56:09.496Z,20.292
2022-09-21T15:57:08.939Z,20.327
2022-09-21T15:58:10.034Z,20.215
2022-09-21T15:59:09.841Z,20.149
2022-09-21T16:00:09.206Z,20.12
2022-09-21T16:01:08.828Z,20.09
2022-09-21T16:02:09.090Z,20.095
2022-09-21T16:03:08.908Z,20.085
2022-09-21T16:04:08.797Z,20.065
2022-09-21T16:05:09.062Z,20.095
2022-09-21T16:06:11.820Z,20.115
2022-09-21T16:07:09.785Z,20.065
2022-09-21T16:08:08.897Z,20.055
2022-09-21T16:09:09.893Z,20.045
2022-09-21T16:10:09.312Z,19.99
2022-09-21T16:11:11.604Z,19.975
2022-09-21T16:12:09.259Z,19.965
2022-09-21T16:13:09.898Z,19.955
2022-09-21T16:14:08.295Z,19.97
2022-09-21T16:15:09.002Z,20.005
2022-09-21T16:16:12.642Z,20.03
2022-09-21T16:17:09.761Z,20.03
2022-09-21T16:18:08.635Z,20.106
2022-09-21T16:19:08.680Z,20.126
2022-09-21T16:20:11.764Z,20.055
2022-09-21T16:21:12.633Z,20
2022-09-21T16:22:08.867Z,19.99
2022-09-21T16:23:09.737Z,19.99
2022-09-21T16:24:08.777Z,19.995
2022-09-21T16:25:08.616Z,19.9836
2022-09-21T16:26:11.887Z,19.972
2022-09-21T16:27:08.497Z,19.994
2022-09-21T16:28:09.631Z,20
2022-09-21T16:29:09.499Z,20.005
2022-09-21T16:30:08.068Z,20.049
2022-09-21T16:31:09.227Z,20.073
2022-09-21T16:32:08.409Z,20.06
2022-09-21T16:33:09.363Z,20.06
2022-09-21T16:34:07.520Z,20.06
2022-09-21T16:35:12.250Z,20.0784
2022-09-21T16:36:08.598Z,20.0981
2022-09-21T16:37:09.261Z,20.03
2022-09-21T16:38:10.041Z,20
2022-09-21T16:39:11.570Z,19.945
2022-09-21T16:40:09.434Z,19.92
2022-09-21T16:41:08.574Z,19.91
2022-09-21T16:42:09.744Z,19.9
2022-09-21T16:43:09.444Z,19.95
2022-09-21T16:44:09.059Z,19.97
2022-09-21T16:45:12.583Z,19.95
2022-09-21T16:46:08.832Z,19.86
2022-09-21T16:47:12.238Z,19.77
2022-09-21T16:48:09.533Z,19.725
2022-09-21T16:49:09.136Z,19.71
2022-09-21T16:50:08.287Z,19.715
2022-09-21T16:51:12.720Z,19.671
2022-09-21T16:52:11.873Z,19.637
2022-09-21T16:53:08.849Z,19.59
2022-09-21T16:54:07.858Z,19.5
2022-09-21T16:55:11.527Z,19.455
2022-09-21T16:56:08.979Z,19.395
2022-09-21T16:57:10.161Z,19.35
2022-09-21T16:58:11.960Z,19.3
2022-09-21T16:59:08.733Z,19.265
2022-09-21T17:00:09.212Z,19.255
2022-09-21T17:01:09.571Z,19.27
2022-09-21T17:02:08.700Z,19.23
2022-09-21T17:03:12.730Z,19.194
2022-09-21T17:04:08.587Z,19.115
2022-09-21T17:05:08.931Z,19.06
2022-09-21T17:06:08.953Z,19.025
2022-09-21T17:07:08.779Z,18.98
2022-09-21T17:08:11.934Z,18.965
2022-09-21T17:09:09.070Z,18.955
2022-09-21T17:10:09.584Z,18.925
2022-09-21T17:11:09.081Z,18.96
2022-09-21T17:12:08.821Z,18.945
2022-09-21T17:13:09.399Z,18.92
2022-09-21T17:14:08.318Z,18.91
2022-09-21T17:15:08.518Z,18.895
2022-09-21T17:16:12.391Z,18.885
2022-09-21T17:17:10.445Z,18.885
2022-09-21T17:18:11.893Z,18.862
2022-09-21T17:19:08.718Z,18.833
2022-09-21T17:20:11.551Z,18.8108
2022-09-21T17:21:09.038Z,18.828
2022-09-21T17:22:09.448Z,18.8
2022-09-21T17:23:09.420Z,18.76
2022-09-21T17:24:09.195Z,18.755
2022-09-21T17:25:09.648Z,18.75
2022-09-21T17:26:09.574Z,18.76
2022-09-21T17:27:08.872Z,18.765
2022-09-21T17:28:11.649Z,18.77
2022-09-21T17:29:09.063Z,18.775
2022-09-21T17:30:09.229Z,18.765
2022-09-21T17:31:11.308Z,18.775
2022-09-21T17:32:09.172Z,18.76
2022-09-21T17:33:08.777Z,18.77
2022-09-21T17:34:09.063Z,18.75
2022-09-21T17:35:08.971Z,18.73
2022-09-21T17:36:08.990Z,18.71
2022-09-21T17:37:08.628Z,18.7
2022-09-21T17:38:12.562Z,18.69
2022-09-21T17:39:08.738Z,18.6783
2022-09-21T17:40:15.528Z,18.666
2022-09-21T17:41:09.204Z,18.66
2022-09-21T17:42:08.940Z,18.643
2022-09-21T17:43:09.659Z,18.6316
2022-09-21T17:44:08.995Z,18.59
2022-09-21T17:45:08.592Z,18.58
2022-09-21T17:46:12.167Z,18.575
2022-09-21T17:47:09.600Z,18.56
2022-09-21T17:48:09.544Z,18.525
2022-09-21T17:49:09.304Z,18.51
2022-09-21T17:50:09.290Z,18.475
2022-09-21T17:51:09.229Z,18.45
2022-09-21T17:52:12.464Z,18.42
2022-09-21T17:53:08.922Z,18.38
2022-09-21T17:54:09.302Z,18.341
2022-09-21T17:55:09.542Z,18.286
2022-09-21T17:56:09.610Z,18.23
2022-09-21T17:57:08.670Z,18.182
2022-09-21T17:58:09.859Z,18.141
2022-09-21T17:59:08.387Z,18.0981
2022-09-21T18:00:09.040Z,18.05
2022-09-21T18:01:08.959Z,18.01
2022-09-21T18:02:10.787Z,17.9618
2022-09-21T18:03:12.467Z,17.9215
2022-09-21T18:04:08.598Z,17.884
2022-09-21T18:05:12.380Z,17.828
2022-09-21T18:06:09.004Z,17.805
2022-09-21T18:07:09.113Z,17.765
2022-09-21T18:08:08.874Z,17.72
2022-09-21T18:09:09.274Z,17.683
2022-09-21T18:10:07.988Z,17.643
2022-09-21T18:11:09.557Z,17.5784
2022-09-21T18:12:08.752Z,17.5381
2022-09-21T18:13:09.084Z,17.485
2022-09-21T18:14:10.769Z,17.44
2022-09-21T18:15:09.650Z,17.405
2022-09-21T18:16:09.074Z,17.339
2022-09-21T18:17:08.799Z,17.322
2022-09-21T18:18:08.312Z,17.265
2022-09-21T18:19:09.196Z,17.25
2022-09-21T18:20:08.106Z,17.214
2022-09-21T18:21:07.307Z,17.149
2022-09-21T18:22:11.975Z,17.1
2022-09-21T18:23:08.924Z,17.07
2022-09-21T18:24:11.838Z,17.035
2022-09-21T18:25:08.609Z,16.975
2022-09-21T18:26:08.239Z,16.93
2022-09-21T18:27:09.361Z,16.905
2022-09-21T18:28:08.488Z,16.862
2022-09-21T18:29:28.661Z,16.8
2022-09-21T18:30:09.145Z,16.765
2022-09-21T18:31:08.130Z,16.699
2022-09-21T18:32:11.189Z,16.688
2022-09-21T18:33:08.823Z,16.626
2022-09-21T18:34:07.454Z,16.595
2022-09-21T18:35:09.195Z,16.565
2022-09-21T18:36:08.293Z,16.515
2022-09-21T18:37:12.545Z,16.49
2022-09-21T18:38:08.811Z,16.45
2022-09-21T18:39:07.974Z,16.42
2022-09-21T18:40:08.153Z,16.39
2022-09-21T18:41:10.805Z,16.35
2022-09-21T18:42:12.664Z,16.28
2022-09-21T18:43:08.584Z,16.25
2022-09-21T18:44:08.770Z,16.205
2022-09-21T18:45:09.015Z,16.1841
2022-09-21T18:46:11.555Z,16.126
2022-09-21T18:47:09.001Z,16.075
2022-09-21T18:48:12.159Z,16.025
2022-09-21T18:49:10.062Z,16
2022-09-21T18:50:08.751Z,15.955
2022-09-21T18:51:08.560Z,15.91
2022-09-21T18:52:12.594Z,15.839
2022-09-21T18:53:08.533Z,15.78
2022-09-21T18:54:10.426Z,15.745
2022-09-21T18:55:12.853Z,15.699
2022-09-21T18:56:08.848Z,15.621
2022-09-21T18:57:09.434Z,15.575
2022-09-21T18:58:09.542Z,15.56
2022-09-21T18:59:07.523Z,15.53
2022-09-21T19:00:08.845Z,15.49
2022-09-21T19:01:08.563Z,15.475
2022-09-21T19:02:07.941Z,15.44
2022-09-21T19:03:17.821Z,15.405
2022-09-21T19:04:07.608Z,15.356
2022-09-21T19:05:08.760Z,15.35
2022-09-21T19:06:11.735Z,15.327
2022-09-21T19:07:11.960Z,15.3158
2022-09-21T19:08:08.687Z,15.31
2022-09-21T19:09:08.576Z,15.295
2022-09-21T19:10:08.149Z,15.29
2022-09-21T19:11:08.370Z,15.29
2022-09-21T19:12:09.124Z,15.3108
2022-09-21T19:13:08.587Z,15.3
2022-09-21T19:14:08.627Z,15.29
2022-09-21T19:15:12.131Z,15.28
2022-09-21T19:16:08.600Z,15.295
2022-09-21T19:17:08.738Z,15.275
2022-09-21T19:18:08.850Z,15.255
2022-09-21T19:19:07.251Z,15.25
2022-09-21T19:20:10.424Z,15.23
2022-09-21T19:21:09.168Z,15.215
2022-09-21T19:22:09.005Z,15.205
2022-09-21T19:23:11.580Z,15.1891
2022-09-21T19:24:07.837Z,15.137
2022-09-21T19:25:12.053Z,15.1258
2022-09-21T19:26:08.212Z,15.095
2022-09-21T19:27:08.335Z,15.055
2022-09-21T19:28:11.054Z,15.0327
2022-09-21T19:29:08.127Z,14.98
2022-09-21T19:30:12.216Z,14.9584
2022-09-21T19:31:10.613Z,14.929
2022-09-21T19:32:08.279Z,14.8741
2022-09-21T19:33:09.158Z,14.858
2022-09-21T19:34:07.941Z,14.8158
2022-09-21T19:35:08.344Z,14.8
2022-09-21T19:36:09.444Z,14.7684
2022-09-21T19:37:08.782Z,14.7663
2022-09-21T19:38:09.877Z,14.8007
2022-09-21T19:39:07.924Z,14.7772
2022-09-21T19:40:08.845Z,14.76
2022-09-21T19:41:10.265Z,14.705
2022-09-21T19:42:07.856Z,14.672
2022-09-21T19:43:09.396Z,14.655
2022-09-21T19:44:07.527Z,14.61
2022-09-21T19:45:10.457Z,14.58
2022-09-21T19:46:11.701Z,14.525
2022-09-21T19:47:08.643Z,14.5
2022-09-21T19:48:08.258Z,14.465
2022-09-21T19:49:09.369Z,14.415
2022-09-21T19:50:07.940Z,14.385
2022-09-21T19:51:08.773Z,14.327
2022-09-21T19:52:07.767Z,14.28
2022-09-21T19:53:09.105Z,14.235
2022-09-21T19:54:08.053Z,14.1783
2022-09-21T19:55:08.509Z,14.155
2022-09-21T19:56:08.256Z,14.1
2022-09-21T19:57:08.832Z,14.075
2022-09-21T19:58:08.526Z,14.04
2022-09-21T19:59:08.105Z,14.025
2022-09-21T20:00:11.244Z,14.01
2022-09-21T20:01:11.362Z,14.005
2022-09-21T20:02:08.729Z,13.97
2022-09-21T20:03:09.233Z,13.97
2022-09-21T20:04:07.638Z,13.955
2022-09-21T20:05:08.726Z,13.95
2022-09-21T20:06:09.209Z,13.955
2022-09-21T20:07:08.400Z,13.95
2022-09-21T20:08:09.464Z,13.94
2022-09-21T20:09:10.293Z,13.93
2022-09-21T20:10:11.257Z,13.925
2022-09-21T20:11:11.699Z,13.915
2022-09-21T20:12:11.455Z,13.905
2022-09-21T20:13:11.988Z,13.8791
2022-09-21T20:14:08.447Z,13.862
2022-09-21T20:15:08.771Z,13.844
2022-09-21T20:16:07.896Z,13.816
2022-09-21T20:17:08.784Z,13.8
2022-09-21T20:18:11.863Z,13.795
2022-09-21T20:19:10.536Z,13.755